Time;durP1;ratioP1;P1;durP2;ratioP2;P2;SDS_P1;SDS_P2;PMS_P1;PMS_P2;Temp;Humidity;BMP_temperature;BMP_pressure;BME280_temperature;BME280_humidity;BME280_pressure;Samples;Min_cycle;Max_cycle;Signal;HPM_P1;HPM_P2
2022/08/17 00:00:26;;;;;;;36.90;32.92;;;18.30;99.90;;;;;;5026180;28;20060;-67
2022/08/17 00:03:19;;;;;;;37.63;33.55;;;18.30;99.90;;;;;;5028063;28;20045;-68
2022/08/17 00:05:52;;;;;;;37.60;33.55;;;18.40;99.90;;;;;;5026060;28;20102;-67
2022/08/17 00:08:25;;;;;;;38.10;34.10;;;18.40;99.90;;;;;;5025401;28;20037;-67
2022/08/17 00:10:51;;;;;;;39.95;35.70;;;18.40;99.90;;;;;;5025188;28;20038;-67
2022/08/17 00:13:24;;;;;;;39.80;35.20;;;18.40;99.90;;;;;;5028196;28;20033;-67
2022/08/17 00:15:50;;;;;;;37.38;33.40;;;18.40;99.90;;;;;;5010631;28;20033;-68
2022/08/17 00:18:16;;;;;;;34.97;31.33;;;18.40;99.90;;;;;;5006475;28;20062;-67
2022/08/17 00:20:42;;;;;;;36.60;31.80;;;18.40;99.90;;;;;;5026450;28;20163;-67
2022/08/17 00:23:12;;;;;;;36.05;32.17;;;18.40;99.90;;;;;;5025755;28;20052;-68
2022/08/17 00:25:41;;;;;;;37.05;32.05;;;18.40;99.90;;;;;;5026721;28;20037;-67
2022/08/17 00:28:07;;;;;;;35.80;32.10;;;18.40;99.90;;;;;;5025201;28;20056;-68
2022/08/17 00:30:34;;;;;;;33.28;29.98;;;18.40;99.90;;;;;;5026445;28;20068;-67
2022/08/17 00:33:06;;;;;;;35.05;31.38;;;18.30;99.90;;;;;;5006888;28;20069;-68
2022/08/17 00:35:33;;;;;;;35.38;31.58;;;18.30;99.90;;;;;;5026902;28;20037;-66
2022/08/17 00:37:58;;;;;;;34.17;30.65;;;18.30;99.90;;;;;;5025405;28;20045;-67
2022/08/17 00:40:25;;;;;;;33.53;30.05;;;18.30;99.90;;;;;;5025604;28;20044;-67
2022/08/17 00:42:52;;;;;;;32.22;28.98;;;18.20;99.90;;;;;;5008103;28;20479;-67
2022/08/17 00:45:19;;;;;;;33.72;30.25;;;18.20;99.90;;;;;;5023724;28;20041;-68
2022/08/17 00:47:45;;;;;;;33.28;29.95;;;18.20;99.90;;;;;;5026363;28;20048;-68
2022/08/17 00:50:17;;;;;;;29.77;26.60;;;18.10;99.90;;;;;;5006854;28;20145;-68
2022/08/17 00:52:53;;;;;;;28.02;25.20;;;18.10;99.90;;;;;;5023498;28;20037;-68
2022/08/17 00:55:20;;;;;;;29.10;26.20;;;18.10;99.90;;;;;;5025013;28;20037;-68
2022/08/17 00:57:48;;;;;;;29.20;26.15;;;18.10;99.90;;;;;;5024864;28;20044;-68
2022/08/17 01:00:20;;;;;;;28.30;25.43;;;18.10;99.90;;;;;;5021957;28;20037;-68
2022/08/17 01:02:47;;;;;;;30.75;26.02;;;18.10;99.90;;;;;;5024747;28;20549;-66
2022/08/17 01:05:22;;;;;;;33.20;28.85;;;18.10;99.90;;;;;;5006406;28;20042;-67
2022/08/17 01:07:49;;;;;;;30.77;27.67;;;18.10;99.90;;;;;;5023022;28;20041;-68
2022/08/17 01:10:18;;;;;;;26.85;23.98;;;18.10;99.90;;;;;;5023944;28;20029;-67
2022/08/17 01:12:44;;;;;;;26.15;23.67;;;18.10;99.90;;;;;;5025244;28;20075;-67
2022/08/17 01:15:10;;;;;;;26.50;23.70;;;18.10;99.90;;;;;;5024790;28;20034;-67
2022/08/17 01:17:37;;;;;;;25.80;22.50;;;18.10;99.90;;;;;;5026248;28;20064;-68
2022/08/17 01:20:03;;;;;;;27.60;24.67;;;18.10;99.90;;;;;;5023789;28;20183;-67
2022/08/17 01:22:31;;;;;;;27.70;24.30;;;18.10;99.90;;;;;;5025857;28;20718;-68
2022/08/17 01:24:59;;;;;;;27.35;24.40;;;18.00;99.90;;;;;;5025467;28;20060;-68
2022/08/17 01:27:27;;;;;;;25.92;23.33;;;18.00;99.90;;;;;;5025564;28;20034;-67
2022/08/17 01:29:58;;;;;;;23.08;20.88;;;18.00;99.90;;;;;;5023383;28;20712;-66
2022/08/17 01:32:26;;;;;;;24.65;22.15;;;18.00;99.90;;;;;;5016169;28;20068;-67
2022/08/17 01:34:52;;;;;;;24.88;22.35;;;18.00;99.90;;;;;;5024395;28;20121;-68
2022/08/17 01:37:26;;;;;;;26.33;23.50;;;18.00;99.90;;;;;;5020744;28;20025;-67
2022/08/17 01:39:59;;;;;;;31.83;28.15;;;17.90;99.90;;;;;;5020659;28;20044;-68
2022/08/17 01:42:43;;;;;;;29.88;26.73;;;17.90;99.90;;;;;;5006728;28;20037;-67
2022/08/17 01:45:31;;;;;;;31.20;27.92;;;17.80;99.90;;;;;;5006412;28;20087;-68
2022/08/17 01:47:57;;;;;;;31.35;28.05;;;17.70;99.90;;;;;;5008147;28;20041;-67
2022/08/17 01:50:27;;;;;;;30.38;27.33;;;17.60;99.90;;;;;;5008330;28;20524;-67
2022/08/17 01:53:00;;;;;;;28.48;25.58;;;17.60;99.90;;;;;;5025876;28;20068;-67
2022/08/17 01:55:34;;;;;;;30.30;27.13;;;17.50;99.90;;;;;;5025403;28;20034;-68
2022/08/17 01:58:00;;;;;;;28.77;25.63;;;17.50;99.90;;;;;;5025176;28;20053;-68
2022/08/17 02:00:26;;;;;;;28.33;25.33;;;17.50;99.90;;;;;;5024260;28;20038;-68
2022/08/17 02:02:52;;;;;;;28.33;25.52;;;17.50;99.90;;;;;;5024766;28;20808;-68
2022/08/17 02:05:18;;;;;;;29.67;26.55;;;17.60;99.90;;;;;;5024240;28;20107;-67
2022/08/17 02:07:44;;;;;;;29.25;26.25;;;17.60;99.90;;;;;;5026116;28;20045;-68
2022/08/17 02:10:10;;;;;;;31.52;28.15;;;17.60;99.90;;;;;;5024871;28;20693;-66
2022/08/17 02:12:36;;;;;;;32.13;28.83;;;17.60;99.90;;;;;;5025640;28;20109;-68
2022/08/17 02:15:04;;;;;;;35.30;31.50;;;17.60;99.90;;;;;;5024273;28;20037;-68
2022/08/17 02:17:30;;;;;;;37.72;33.78;;;17.60;99.90;;;;;;5025372;28;20054;-66
2022/08/17 02:19:55;;;;;;;34.53;30.90;;;17.60;99.90;;;;;;5024734;28;20044;-67
2022/08/17 02:22:24;;;;;;;33.72;30.15;;;17.60;99.90;;;;;;5027355;28;20026;-67
2022/08/17 02:24:51;;;;;;;31.42;28.13;;;17.60;99.90;;;;;;5024988;28;20041;-68
2022/08/17 02:27:16;;;;;;;31.67;28.45;;;17.50;99.90;;;;;;5024006;28;20140;-67
2022/08/17 02:29:42;;;;;;;34.28;30.65;;;17.50;99.90;;;;;;5011241;28;20045;-67
2022/08/17 02:32:16;;;;;;;35.88;32.25;;;17.50;99.90;;;;;;5028863;28;20061;-66
2022/08/17 02:34:41;;;;;;;34.58;30.83;;;17.50;99.90;;;;;;5029709;28;20029;-67
2022/08/17 02:37:07;;;;;;;33.55;29.95;;;17.50;99.90;;;;;;5027993;28;20565;-67
2022/08/17 02:39:33;;;;;;;35.15;31.42;;;17.40;99.90;;;;;;5026208;28;20034;-67
2022/08/17 02:42:02;;;;;;;32.75;28.98;;;17.30;99.90;;;;;;5008193;28;20045;-68
2022/08/17 02:44:28;;;;;;;32.00;28.77;;;17.30;99.90;;;;;;5029986;28;20052;-67
2022/08/17 02:46:53;;;;;;;31.70;28.45;;;17.30;99.90;;;;;;5029029;28;20484;-67
2022/08/17 02:49:19;;;;;;;30.42;27.25;;;17.20;99.90;;;;;;5028887;28;20099;-67
2022/08/17 02:51:44;;;;;;;32.00;28.67;;;17.10;99.90;;;;;;5027213;28;20034;-67
2022/08/17 02:54:10;;;;;;;33.08;29.67;;;17.10;99.90;;;;;;5012125;28;20068;-67
2022/08/17 02:56:36;;;;;;;34.35;30.40;;;17.20;99.90;;;;;;5029026;28;20029;-67
2022/08/17 02:59:01;;;;;;;34.30;30.27;;;17.20;99.90;;;;;;5029371;28;20171;-67
2022/08/17 03:01:27;;;;;;;39.63;33.88;;;17.30;99.90;;;;;;5025953;28;20079;-67
2022/08/17 03:03:53;;;;;;;35.58;31.85;;;17.30;99.90;;;;;;5029177;28;20044;-67
2022/08/17 03:06:19;;;;;;;36.70;32.80;;;17.30;99.90;;;;;;5028301;28;20041;-67
2022/08/17 03:08:44;;;;;;;34.78;31.10;;;17.30;99.90;;;;;;5028759;28;20037;-68
2022/08/17 03:11:10;;;;;;;36.85;32.85;;;17.30;99.90;;;;;;5027826;28;20034;-68
2022/08/17 03:13:36;;;;;;;36.47;32.67;;;17.30;99.90;;;;;;5026534;28;20041;-67
2022/08/17 03:16:02;;;;;;;38.25;34.20;;;17.40;99.90;;;;;;5009393;28;20539;-68
2022/08/17 03:18:28;;;;;;;38.15;33.97;;;17.40;99.90;;;;;;5035870;28;20389;-68
2022/08/17 03:20:56;;;;;;;38.88;34.83;;;17.40;99.90;;;;;;5009450;28;20033;-67
2022/08/17 03:23:22;;;;;;;39.28;35.22;;;17.40;99.90;;;;;;5029216;28;20034;-67
2022/08/17 03:25:48;;;;;;;41.53;37.08;;;17.40;99.90;;;;;;5027134;28;20087;-68
2022/08/17 03:28:15;;;;;;;38.70;34.28;;;17.40;99.90;;;;;;5029541;28;20459;-67
2022/08/17 03:30:41;;;;;;;37.45;33.17;;;17.40;99.90;;;;;;5025913;28;20045;-67
2022/08/17 03:33:10;;;;;;;37.25;32.75;;;17.40;99.90;;;;;;5028424;28;20087;-66
2022/08/17 03:35:39;;;;;;;37.58;33.58;;;17.40;99.90;;;;;;5026241;28;20064;-67
2022/08/17 03:38:06;;;;;;;40.42;36.05;;;17.40;99.90;;;;;;5028686;28;20045;-67
2022/08/17 03:40:32;;;;;;;39.35;35.15;;;17.40;99.90;;;;;;5024638;28;20051;-68
2022/08/17 03:43:04;;;;;;;40.97;36.55;;;17.40;99.90;;;;;;5027645;28;20468;-68
2022/08/17 03:56:41;;;;;;;;;;;17.20;99.90;;;;;;5024507;28;20048;-67
2022/08/17 03:59:21;;;;;;;38.45;33.60;;;17.10;99.90;;;;;;5027450;28;20291;-67
2022/08/17 04:01:49;;;;;;;36.05;31.90;;;17.00;99.90;;;;;;5033847;28;20033;-66
2022/08/17 04:04:16;;;;;;;35.90;32.08;;;17.00;99.90;;;;;;5026703;28;20049;-67
2022/08/17 04:06:42;;;;;;;37.67;33.65;;;16.90;99.90;;;;;;5028200;28;20041;-67
2022/08/17 04:09:09;;;;;;;38.30;34.25;;;16.80;99.90;;;;;;5018315;28;20689;-67
2022/08/17 04:11:35;;;;;;;38.00;33.90;;;16.70;99.90;;;;;;5024065;28;20025;-66
2022/08/17 04:14:01;;;;;;;38.80;33.55;;;16.60;99.90;;;;;;5010714;28;20040;-67
2022/08/17 04:16:28;;;;;;;40.15;34.97;;;16.60;99.90;;;;;;5027980;28;20026;-68
2022/08/17 04:18:53;;;;;;;42.92;35.10;;;16.70;99.90;;;;;;5023739;28;20049;-68
2022/08/17 04:21:20;;;;;;;38.88;33.63;;;16.60;99.90;;;;;;5024524;28;20095;-67
2022/08/17 04:23:46;;;;;;;37.90;33.88;;;16.60;99.90;;;;;;5009675;28;20639;-68
2022/08/17 04:26:13;;;;;;;34.25;30.60;;;16.60;99.90;;;;;;5026016;28;20036;-67
2022/08/17 04:28:42;;;;;;;34.40;30.98;;;16.50;99.90;;;;;;5026971;28;20045;-67
2022/08/17 04:31:10;;;;;;;34.38;30.70;;;16.50;99.90;;;;;;5025175;28;20030;-67
2022/08/17 04:33:36;;;;;;;36.72;32.95;;;16.50;99.90;;;;;;5028124;28;20037;-67
2022/08/17 04:36:05;;;;;;;35.47;31.60;;;16.50;99.90;;;;;;5005091;28;20025;-67
2022/08/17 04:38:36;;;;;;;36.78;32.88;;;16.50;99.90;;;;;;5027660;28;20052;-66
2022/08/17 04:43:48;;;;;;;34.45;30.85;;;16.40;99.90;;;;;;5026115;28;20074;-67
2022/08/17 04:46:17;;;;;;;32.17;28.90;;;16.50;99.90;;;;;;5024859;28;20057;-66
2022/08/17 04:48:47;;;;;;;35.17;31.45;;;16.50;99.90;;;;;;5028227;28;20041;-67
2022/08/17 04:51:16;;;;;;;32.13;28.85;;;16.50;99.90;;;;;;5025995;28;20055;-69
2022/08/17 04:53:45;;;;;;;36.28;32.22;;;16.60;99.90;;;;;;5027021;28;20029;-67
2022/08/17 04:56:14;;;;;;;35.42;31.58;;;16.60;99.90;;;;;;5026816;28;20041;-67
2022/08/17 04:58:50;;;;;;;36.30;32.40;;;16.60;99.90;;;;;;5012761;28;20095;-67
2022/08/17 05:01:18;;;;;;;36.30;32.50;;;16.50;99.90;;;;;;5024147;28;20120;-67
2022/08/17 05:03:43;;;;;;;35.92;32.03;;;16.50;99.90;;;;;;5027008;28;20095;-67
2022/08/17 05:06:10;;;;;;;35.08;31.38;;;16.60;99.90;;;;;;5012642;28;20443;-67
2022/08/17 05:08:35;;;;;;;37.28;32.42;;;16.60;99.90;;;;;;5026252;28;20064;-67
2022/08/17 05:11:01;;;;;;;33.58;30.02;;;16.60;99.90;;;;;;5025270;28;20488;-67
2022/08/17 05:13:28;;;;;;;33.35;30.00;;;16.60;99.90;;;;;;5026749;28;20757;-67
2022/08/17 05:16:01;;;;;;;32.80;29.27;;;16.70;99.90;;;;;;5012354;28;20493;-67
2022/08/17 05:18:28;;;;;;;31.48;27.92;;;16.70;99.90;;;;;;5025585;28;20046;-68
2022/08/17 05:20:54;;;;;;;31.15;27.80;;;16.80;99.90;;;;;;5026213;28;20036;-67
2022/08/17 05:23:23;;;;;;;29.48;26.52;;;16.80;99.90;;;;;;5025326;28;20033;-67
2022/08/17 05:25:53;;;;;;;30.50;27.33;;;16.80;99.90;;;;;;5009009;28;20026;-66
2022/08/17 05:28:20;;;;;;;30.55;27.17;;;16.80;99.90;;;;;;5025621;28;20299;-68
2022/08/17 05:30:47;;;;;;;32.05;28.67;;;16.80;99.90;;;;;;5023162;28;20030;-67
2022/08/17 05:33:19;;;;;;;30.13;26.92;;;16.80;99.90;;;;;;5026744;28;20051;-67
2022/08/17 05:35:47;;;;;;;28.65;25.52;;;16.80;99.90;;;;;;5024942;28;20048;-66
2022/08/17 05:38:18;;;;;;;30.80;27.63;;;16.80;99.90;;;;;;5027074;28;20057;-67
2022/08/17 05:40:45;;;;;;;29.65;26.48;;;16.80;99.90;;;;;;5024047;28;20547;-67
2022/08/17 05:43:12;;;;;;;33.38;29.88;;;16.80;99.90;;;;;;5023937;28;20044;-67
2022/08/17 05:45:49;;;;;;;32.45;28.98;;;16.80;99.90;;;;;;5025774;28;20026;-69
2022/08/17 05:48:15;;;;;;;32.55;29.15;;;16.80;99.90;;;;;;5025181;28;20056;-67
2022/08/17 05:50:48;;;;;;;36.45;31.55;;;16.80;99.90;;;;;;5009232;28;20052;-68
2022/08/17 05:54:01;;;;;;;35.60;31.52;;;16.80;99.90;;;;;;5007991;28;20036;-68
2022/08/17 05:56:33;;;;;;;35.97;32.22;;;16.80;99.90;;;;;;4965566;28;20045;-67
2022/08/17 05:59:29;;;;;;;35.45;31.67;;;16.70;99.90;;;;;;4970742;28;20034;-68
2022/08/17 06:02:11;;;;;;;37.90;33.80;;;16.70;99.90;;;;;;4961273;28;20045;-67
2022/08/17 06:04:52;;;;;;;38.60;33.10;;;16.80;99.90;;;;;;4965005;28;20062;-67
2022/08/17 06:07:44;;;;;;;37.28;33.22;;;16.70;99.90;;;;;;4968722;28;20100;-67
2022/08/17 06:10:35;;;;;;;36.63;32.72;;;16.70;99.90;;;;;;4960070;28;20047;-67
2022/08/17 06:13:24;;;;;;;37.47;33.40;;;16.80;99.90;;;;;;4951101;28;20022;-67
2022/08/17 06:16:08;;;;;;;39.00;34.72;;;16.80;99.90;;;;;;4972775;28;20027;-66
2022/08/17 06:18:56;;;;;;;42.15;35.53;;;16.80;99.90;;;;;;4958878;28;20569;-68
2022/08/17 06:21:23;;;;;;;40.90;33.15;;;16.80;99.90;;;;;;4944372;28;20050;-67
2022/08/17 06:23:54;;;;;;;37.75;33.65;;;16.90;99.90;;;;;;4970368;28;20121;-67
2022/08/17 06:26:23;;;;;;;34.65;30.95;;;16.90;99.90;;;;;;4973082;28;20046;-67
2022/08/17 06:28:59;;;;;;;38.42;33.88;;;17.00;99.90;;;;;;5023572;28;20045;-67
2022/08/17 06:31:27;;;;;;;39.58;34.67;;;17.00;99.90;;;;;;5009883;28;20037;-68
2022/08/17 06:33:56;;;;;;;37.37;32.60;;;17.10;99.90;;;;;;5027419;28;20030;-68
2022/08/17 06:36:31;;;;;;;39.78;34.75;;;17.20;99.90;;;;;;5026578;28;20124;-68
2022/08/17 06:39:09;;;;;;;38.50;33.67;;;17.20;99.90;;;;;;5018543;28;20041;-67
2022/08/17 06:41:41;;;;;;;39.38;34.03;;;17.40;99.90;;;;;;5028739;28;20037;-68
2022/08/17 06:44:29;;;;;;;36.15;32.25;;;17.50;99.90;;;;;;5005807;28;20056;-67
2022/08/17 06:47:08;;;;;;;35.88;31.85;;;17.60;99.90;;;;;;5024509;28;20035;-68
2022/08/17 06:49:50;;;;;;;35.67;31.88;;;17.70;99.90;;;;;;5022486;28;20041;-67
2022/08/17 06:52:27;;;;;;;36.47;32.42;;;17.80;99.90;;;;;;5027246;28;20033;-68
2022/08/17 06:55:12;;;;;;;37.15;33.22;;;17.90;99.90;;;;;;5022585;28;20511;-68
2022/08/17 06:57:45;;;;;;;36.80;32.80;;;18.00;99.90;;;;;;5028923;28;20095;-67
2022/08/17 07:00:16;;;;;;;37.17;33.17;;;18.00;99.90;;;;;;5020666;28;20033;-70
2022/08/17 07:03:19;;;;;;;37.90;33.90;;;18.20;99.90;;;;;;5024957;28;20029;-68
2022/08/17 07:05:56;;;;;;;35.63;31.95;;;18.40;99.90;;;;;;4981985;28;20102;-68
2022/08/17 07:08:32;;;;;;;37.97;33.45;;;18.70;99.90;;;;;;5022339;28;20048;-67
2022/08/17 07:11:13;;;;;;;37.72;33.83;;;18.90;99.90;;;;;;5026787;28;20395;-67
2022/08/17 07:13:45;;;;;;;37.80;33.67;;;19.10;99.90;;;;;;5023111;28;20028;-67
2022/08/17 07:16:35;;;;;;;34.03;30.27;;;19.10;99.90;;;;;;5017210;28;20029;-73
2022/08/17 07:19:03;;;;;;;35.90;31.05;;;19.10;99.90;;;;;;5023762;28;20924;-70
2022/08/17 07:21:53;;;;;;;35.45;31.35;;;19.10;99.90;;;;;;5024541;28;20132;-69
2022/08/17 07:24:29;;;;;;;33.53;30.02;;;19.00;99.90;;;;;;5032400;28;20041;-70
2022/08/17 07:27:12;;;;;;;32.90;29.50;;;19.00;99.90;;;;;;5035217;28;20078;-69
2022/08/17 07:29:52;;;;;;;30.95;27.73;;;19.00;99.90;;;;;;5033910;28;20117;-67
2022/08/17 07:32:25;;;;;;;32.15;28.75;;;19.00;99.90;;;;;;5025833;28;20036;-68
2022/08/17 07:35:07;;;;;;;31.10;27.83;;;19.00;99.90;;;;;;5027789;28;20048;-69
2022/08/17 07:37:37;;;;;;;30.00;26.77;;;19.10;99.90;;;;;;5024902;28;20029;-69
2022/08/17 07:40:22;;;;;;;;;;;19.10;99.90;;;;;;5028866;28;20557;-68
2022/08/17 07:43:21;;;;;;;29.38;26.35;;;19.10;99.90;;;;;;5032843;28;19948;-68
2022/08/17 07:48:42;;;;;;;26.83;23.92;;;19.20;99.90;;;;;;5019061;28;19936;-69
2022/08/17 07:51:35;;;;;;;25.45;22.60;;;19.30;99.90;;;;;;5024336;28;20036;-69
2022/08/17 07:54:22;;;;;;;20.05;17.95;;;19.30;99.90;;;;;;5021169;28;20036;-68
2022/08/17 07:56:51;;;;;;;15.75;14.15;;;19.40;99.90;;;;;;5031299;28;20037;-70
2022/08/17 07:59:19;;;;;;;16.17;12.70;;;19.40;99.90;;;;;;5024528;28;20635;-68
2022/08/17 08:02:04;;;;;;;15.18;13.57;;;19.50;99.90;;;;;;5016495;28;20034;-69
2022/08/17 08:04:35;;;;;;;13.63;12.23;;;19.50;99.90;;;;;;5017730;28;20677;-69
2022/08/17 08:07:27;;;;;;;13.20;11.23;;;19.60;99.90;;;;;;5022858;28;20083;-69
2022/08/17 08:10:29;;;;;;;12.60;10.98;;;19.70;99.90;;;;;;5023285;28;20080;-68
2022/08/17 08:13:21;;;;;;;12.75;9.88;;;19.70;99.90;;;;;;4999430;28;20456;-67
2022/08/17 08:15:50;;;;;;;12.82;10.18;;;19.80;99.90;;;;;;4977781;28;20030;-68
2022/08/17 08:18:41;;;;;;;11.00;9.38;;;19.80;99.90;;;;;;4995443;28;20414;-67
2022/08/17 08:21:12;;;;;;;12.60;9.23;;;19.90;99.90;;;;;;4999777;28;20041;-68
2022/08/17 08:23:56;;;;;;;10.55;8.88;;;19.90;99.90;;;;;;5000796;28;20485;-69
2022/08/17 08:26:33;;;;;;;11.13;8.35;;;19.90;99.90;;;;;;4997225;28;20038;-69
2022/08/17 08:29:28;;;;;;;9.77;8.70;;;19.90;99.90;;;;;;5011038;28;20073;-68
2022/08/17 08:31:55;;;;;;;9.80;8.35;;;20.00;99.90;;;;;;5013523;28;20029;-70
2022/08/17 08:35:06;;;;;;;10.38;7.80;;;20.00;99.90;;;;;;5005525;28;20038;-69
2022/08/17 08:37:38;;;;;;;9.20;7.63;;;20.00;99.90;;;;;;5000084;28;20046;-68
2022/08/17 08:40:37;;;;;;;8.48;7.60;;;20.00;99.90;;;;;;5012804;28;20487;-68
2022/08/17 08:43:27;;;;;;;9.73;7.50;;;20.00;99.90;;;;;;4994806;28;20025;-69
2022/08/17 08:46:27;;;;;;;10.38;7.28;;;20.00;99.90;;;;;;5007946;28;20037;-69
2022/08/17 08:49:20;;;;;;;9.30;7.15;;;20.00;99.90;;;;;;5028325;28;20033;-68
2022/08/17 08:51:51;;;;;;;10.20;8.57;;;20.00;99.90;;;;;;5023887;28;20040;-68
2022/08/17 08:54:17;;;;;;;9.23;8.32;;;20.00;99.90;;;;;;5025695;28;20033;-68
2022/08/17 08:56:59;;;;;;;10.60;9.00;;;20.00;99.90;;;;;;5026165;28;20032;-67
2022/08/17 08:59:51;;;;;;;9.27;7.00;;;20.00;99.90;;;;;;5007627;28;20061;-68
2022/08/17 09:02:44;;;;;;;11.20;7.72;;;20.10;99.90;;;;;;5019763;28;20123;-68
2022/08/17 09:05:46;;;;;;;10.77;7.50;;;20.10;99.90;;;;;;5025347;28;20088;-68
2022/08/17 09:08:28;;;;;;;13.63;7.53;;;20.20;99.90;;;;;;4943963;28;20051;-69
2022/08/17 09:11:23;;;;;;;20.52;8.90;;;20.30;99.90;;;;;;4949220;28;20114;-69
2022/08/17 09:14:13;;;;;;;9.02;7.88;;;20.40;99.90;;;;;;4955170;28;20195;-68
2022/08/17 09:16:56;;;;;;;10.25;7.90;;;20.50;99.90;;;;;;4953427;28;20565;-68
2022/08/17 09:19:49;;;;;;;9.30;7.72;;;20.50;99.90;;;;;;4945684;28;20514;-69
2022/08/17 09:22:51;;;;;;;11.60;7.82;;;20.60;99.90;;;;;;4953519;28;20076;-68
2022/08/17 09:25:27;;;;;;;9.15;7.50;;;20.70;99.90;;;;;;4953145;28;20053;-68
2022/08/17 09:28:06;;;;;;;10.45;7.13;;;20.70;99.90;;;;;;4959258;28;20033;-68
2022/08/17 09:30:45;;;;;;;10.32;7.53;;;20.70;99.90;;;;;;4949198;28;20054;-69
2022/08/17 09:33:16;;;;;;;9.27;7.53;;;20.70;99.90;;;;;;4938895;28;20454;-69
2022/08/17 09:35:47;;;;;;;9.98;7.90;;;20.80;99.90;;;;;;4940839;28;20122;-67
2022/08/17 09:38:15;;;;;;;10.38;7.47;;;20.80;99.90;;;;;;4949838;28;20074;-68
2022/08/17 09:41:06;;;;;;;11.68;7.45;;;20.80;99.90;;;;;;4954971;28;20073;-68
2022/08/17 09:43:40;;;;;;;8.95;7.75;;;20.70;99.90;;;;;;4950167;28;20047;-68
2022/08/17 09:46:20;;;;;;;8.90;6.75;;;20.80;99.90;;;;;;5031190;28;20033;-68
2022/08/17 09:48:56;;;;;;;11.95;8.40;;;20.80;99.90;;;;;;5026090;28;20491;-68
2022/08/17 09:51:43;;;;;;;12.27;8.88;;;20.80;99.90;;;;;;5011400;28;20049;-68
2022/08/17 09:54:22;;;;;;;12.93;9.13;;;20.80;99.90;;;;;;5028160;28;20037;-69
2022/08/17 09:57:09;;;;;;;11.10;9.07;;;20.70;99.90;;;;;;5026736;28;20037;-68
2022/08/17 09:59:49;;;;;;;12.98;8.63;;;20.70;99.90;;;;;;5029704;28;20033;-69
2022/08/17 10:02:49;;;;;;;14.80;11.05;;;20.70;99.90;;;;;;5027597;28;20025;-69
2022/08/17 10:05:26;;;;;;;18.67;13.60;;;20.60;99.90;;;;;;5015873;28;20456;-68
2022/08/17 10:07:54;;;;;;;22.63;14.52;;;20.40;99.90;;;;;;5028511;28;20103;-68
2022/08/17 10:11:10;;;;;;;22.07;15.33;;;20.20;99.90;;;;;;5027021;28;20034;-68
2022/08/17 10:14:12;;;;;;;18.48;14.25;;;20.00;99.90;;;;;;4958790;28;20134;-68
2022/08/17 10:16:48;;;;;;;19.02;15.20;;;19.80;99.90;;;;;;4969114;28;20035;-68
2022/08/17 10:19:20;;;;;;;21.65;16.77;;;19.80;99.90;;;;;;4968334;28;20047;-68
2022/08/17 10:27:57;;;;;;;22.10;15.65;;;19.50;99.90;;;;;;4965265;28;20210;-69
2022/08/17 10:30:29;;;;;;;18.70;14.80;;;19.40;99.90;;;;;;4966935;28;20093;-69
2022/08/17 10:32:59;;;;;;;15.52;12.63;;;19.40;99.90;;;;;;4949962;28;20042;-69
2022/08/17 10:35:33;;;;;;;13.43;12.02;;;19.30;99.90;;;;;;4967077;28;20046;-69
2022/08/17 10:38:19;;;;;;;17.25;13.60;;;19.40;99.90;;;;;;4968672;28;20042;-69
2022/08/17 10:41:04;;;;;;;18.75;15.90;;;19.30;99.90;;;;;;4965043;28;20034;-69
2022/08/17 10:44:08;;;;;;;20.17;16.92;;;19.30;99.90;;;;;;4965451;28;20038;-69
2022/08/17 10:46:55;;;;;;;17.17;14.95;;;19.40;99.90;;;;;;4905991;29;20621;-69
2022/08/17 10:49:48;;;;;;;24.35;18.95;;;19.30;99.90;;;;;;4919641;29;20047;-68
2022/08/17 10:52:20;;;;;;;22.25;18.77;;;19.30;99.90;;;;;;4946514;28;20545;-69
2022/08/17 10:54:55;;;;;;;22.83;19.67;;;19.30;99.90;;;;;;4948158;28;20107;-68
2022/08/17 10:57:32;;;;;;;28.23;21.35;;;19.30;99.90;;;;;;4948484;29;20035;-68
2022/08/17 11:00:09;;;;;;;25.30;20.85;;;19.30;99.90;;;;;;4950333;28;20059;-68
2022/08/17 11:02:54;;;;;;;22.65;20.27;;;19.40;99.90;;;;;;4957656;28;20031;-69
2022/08/17 11:05:54;;;;;;;25.65;22.75;;;19.50;99.90;;;;;;4949367;29;20174;-68
2022/08/17 11:08:41;;;;;;;26.27;23.35;;;19.50;99.90;;;;;;4929730;29;20048;-69
2022/08/17 11:11:38;;;;;;;28.10;24.98;;;19.60;99.90;;;;;;4930146;29;20044;-69
2022/08/17 11:14:30;;;;;;;31.95;28.50;;;19.70;99.90;;;;;;4930569;29;20044;-69
2022/08/17 11:17:21;;;;;;;36.40;30.48;;;19.80;99.90;;;;;;4992459;28;20043;-69
2022/08/17 11:19:49;;;;;;;38.55;32.67;;;19.80;99.90;;;;;;5032422;28;20080;-69
2022/08/17 11:23:00;;;;;;;47.75;34.25;;;19.80;99.90;;;;;;5030264;28;20779;-69
2022/08/17 11:26:02;;;;;;;40.75;35.78;;;19.90;99.90;;;;;;5030079;28;20033;-68
2022/08/17 11:28:34;;;;;;;51.80;42.03;;;19.90;99.90;;;;;;5030253;28;20085;-68
2022/08/17 11:31:22;;;;;;;47.78;40.25;;;19.90;99.90;;;;;;5023078;28;20117;-69
2022/08/17 11:33:57;;;;;;;57.28;46.08;;;19.90;99.90;;;;;;5010288;28;20046;-68
2022/08/17 11:37:09;;;;;;;56.28;45.08;;;20.00;99.90;;;;;;5009978;28;20775;-69
2022/08/17 11:40:00;;;;;;;55.17;45.58;;;20.00;99.90;;;;;;5010399;28;20117;-68
2022/08/17 11:42:25;;;;;;;54.65;44.42;;;20.00;99.90;;;;;;5009727;28;20048;-68
2022/08/17 11:45:30;;;;;;;56.30;44.72;;;20.00;99.90;;;;;;5009874;28;20033;-68
2022/08/17 11:51:34;;;;;;;53.00;44.63;;;19.90;99.90;;;;;;4994060;28;20069;-69
2022/08/17 11:54:23;;;;;;;51.88;42.83;;;19.90;99.90;;;;;;5009520;28;20673;-69
2022/08/17 11:56:50;;;;;;;38.33;33.78;;;19.80;99.90;;;;;;4999213;28;20107;-69
2022/08/17 11:59:43;;;;;;;44.10;36.53;;;19.90;99.90;;;;;;5009444;28;20072;-69
2022/08/17 12:02:30;;;;;;;30.83;25.27;;;19.80;99.90;;;;;;4986798;28;20484;-68
2022/08/17 12:05:13;;;;;;;6.75;3.40;;;19.70;99.90;;;;;;5009663;28;20038;-69
2022/08/17 12:07:50;;;;;;;5.07;2.13;;;19.10;99.90;;;;;;5009383;28;20056;-68
2022/08/17 12:10:20;;;;;;;7.05;1.80;;;18.40;99.90;;;;;;5009323;28;20044;-67
2022/08/17 12:12:55;;;;;;;5.95;2.08;;;17.90;99.90;;;;;;5027403;28;20033;-69
2022/08/17 12:15:28;;;;;;;9.35;2.65;;;17.50;99.90;;;;;;5029068;28;20029;-72
2022/08/17 12:17:56;;;;;;;7.93;2.70;;;17.10;99.90;;;;;;5028958;28;20060;-71
2022/08/17 12:20:22;;;;;;;10.15;3.13;;;16.80;99.90;;;;;;5029041;28;20037;-70
2022/08/17 12:23:07;;;;;;;5.28;2.47;;;16.70;99.90;;;;;;5029403;28;20029;-70
2022/08/17 12:25:55;;;;;;;8.60;2.80;;;16.60;99.90;;;;;;5029324;28;20033;-70
2022/08/17 12:28:28;;;;;;;10.02;3.45;;;16.50;99.90;;;;;;5010961;28;20033;-70
2022/08/17 12:31:04;;;;;;;6.88;2.97;;;16.50;99.90;;;;;;5029000;28;20044;-70
2022/08/17 12:33:30;;;;;;;4.82;2.45;;;16.40;99.90;;;;;;5029139;28;20522;-70
2022/08/17 12:36:02;;;;;;;4.28;2.40;;;16.40;99.90;;;;;;5028473;28;20151;-71
2022/08/17 12:38:34;;;;;;;7.13;2.83;;;16.30;99.90;;;;;;5028716;28;20041;-71
2022/08/17 12:44:00;;;;;;;6.15;3.05;;;16.20;99.90;;;;;;5028814;28;20079;-69
2022/08/17 12:46:28;;;;;;;5.38;3.17;;;16.20;99.90;;;;;;5027726;28;20056;-69
2022/08/17 12:49:13;;;;;;;8.00;3.38;;;16.20;99.90;;;;;;5027699;28;20402;-69
2022/08/17 12:51:44;;;;;;;7.60;3.40;;;16.20;99.90;;;;;;5027944;28;20041;-69
2022/08/17 12:54:30;;;;;;;5.43;3.25;;;16.30;99.90;;;;;;5028351;28;20087;-70
2022/08/17 12:57:02;;;;;;;5.93;3.00;;;16.40;99.90;;;;;;5027990;28;20034;-69
2022/08/17 12:59:31;;;;;;;8.07;3.70;;;16.40;99.90;;;;;;5028156;28;20025;-70
2022/08/17 13:01:59;;;;;;;8.20;3.63;;;16.40;99.90;;;;;;5028102;28;20041;-70
2022/08/17 13:04:25;;;;;;;6.70;2.58;;;16.40;99.90;;;;;;5016850;28;20084;-69
2022/08/17 13:06:51;;;;;;;5.80;2.53;;;16.30;99.90;;;;;;5008409;28;20061;-69
2022/08/17 13:09:27;;;;;;;5.55;3.05;;;16.30;99.90;;;;;;5020480;28;20139;-70
2022/08/17 13:11:58;;;;;;;6.32;3.33;;;16.30;99.90;;;;;;5027747;28;20549;-69
2022/08/17 13:14:24;;;;;;;6.30;3.35;;;16.40;99.90;;;;;;5028048;28;20064;-69
2022/08/17 13:16:58;;;;;;;7.53;3.38;;;16.40;99.90;;;;;;5009993;28;20029;-69
2022/08/17 13:19:25;;;;;;;5.72;3.20;;;16.40;99.90;;;;;;5027386;28;20123;-70
2022/08/17 13:21:58;;;;;;;8.13;3.05;;;16.40;99.90;;;;;;5028210;28;20067;-69
2022/08/17 13:24:51;;;;;;;8.38;3.70;;;16.40;99.90;;;;;;5028061;28;20476;-69
2022/08/17 13:27:20;;;;;;;8.25;3.33;;;16.40;99.90;;;;;;5003903;28;20041;-69
2022/08/17 13:29:47;;;;;;;6.68;2.88;;;16.40;99.90;;;;;;5027783;28;20033;-69
2022/08/17 13:32:29;;;;;;;6.38;3.42;;;16.30;99.90;;;;;;5028099;28;20128;-69
2022/08/17 13:34:56;;;;;;;7.28;3.33;;;16.30;99.90;;;;;;5026285;28;20488;-69
2022/08/17 13:37:25;;;;;;;6.38;3.88;;;16.30;99.90;;;;;;5026431;28;20036;-69
2022/08/17 13:39:57;;;;;;;8.35;3.80;;;16.20;99.90;;;;;;5009122;28;20026;-68